createdAt,value
2023-05-15T00:01:51.038Z,3.90
2023-05-15T00:04:17.697Z,3.70
2023-05-15T00:06:44.382Z,3.60
2023-05-15T00:09:11.045Z,3.70
2023-05-15T00:11:37.629Z,3.90
2023-05-15T00:14:04.339Z,3.80
2023-05-15T00:16:30.932Z,3.40
2023-05-15T00:18:57.611Z,3.70
2023-05-15T00:21:24.366Z,3.80
2023-05-15T00:23:53.973Z,3.50
2023-05-15T00:26:20.775Z,4.20
2023-05-15T00:28:47.369Z,3.70
2023-05-15T00:31:14.923Z,3.00
2023-05-15T00:33:41.560Z,3.50
2023-05-15T00:36:09.780Z,4.20
2023-05-15T00:38:36.334Z,3.60
2023-05-15T00:41:06.215Z,3.90
2023-05-15T00:43:33.430Z,3.50
2023-05-15T00:46:01.069Z,3.50
2023-05-15T00:48:29.185Z,3.40
2023-05-15T00:50:59.005Z,3.60
2023-05-15T00:53:27.208Z,3.60
2023-05-15T00:55:57.918Z,3.50
2023-05-15T00:58:26.845Z,3.90
2023-05-15T01:00:53.898Z,3.70
2023-05-15T01:03:20.829Z,3.40
2023-05-15T01:05:47.487Z,3.90
2023-05-15T01:08:32.896Z,3.40
2023-05-15T01:11:00.266Z,3.60
2023-05-15T01:13:26.877Z,4.00
2023-05-15T01:15:55.801Z,3.80
2023-05-15T01:18:22.380Z,3.60
2023-05-15T01:21:10.354Z,3.20
2023-05-15T01:23:58.380Z,3.50
2023-05-15T01:26:58.145Z,3.40
2023-05-15T01:29:30.662Z,3.40
2023-05-15T01:32:02.789Z,3.70
2023-05-15T01:34:46.122Z,3.20
2023-05-15T01:37:17.476Z,4.30
2023-05-15T01:39:47.829Z,3.40
2023-05-15T01:42:17.925Z,3.80
2023-05-15T01:44:54.674Z,3.30
2023-05-15T01:47:38.392Z,3.70
2023-05-15T01:50:08.251Z,3.50
2023-05-15T01:52:40.727Z,3.50
2023-05-15T01:55:08.725Z,3.40
2023-05-15T01:57:36.469Z,3.50
2023-05-15T02:00:04.070Z,3.50
2023-05-15T02:02:42.256Z,3.20
2023-05-15T02:05:09.524Z,3.70
2023-05-15T02:07:36.285Z,3.40
2023-05-15T02:10:03.382Z,3.30
2023-05-15T02:12:31.627Z,3.60
2023-05-15T02:14:59.662Z,3.60
2023-05-15T02:17:34.754Z,3.20
2023-05-15T02:20:01.318Z,3.90
2023-05-15T02:22:27.842Z,3.30
2023-05-15T02:24:54.467Z,3.80
2023-05-15T02:27:27.039Z,3.40
2023-05-15T02:30:30.334Z,3.70
2023-05-15T02:33:17.960Z,3.90
2023-05-15T02:35:56.862Z,3.50
2023-05-15T02:38:30.083Z,3.50
2023-05-15T02:40:58.031Z,3.60
2023-05-15T02:43:26.201Z,3.90
2023-05-15T02:45:54.133Z,3.60
2023-05-15T02:48:21.762Z,4.10
2023-05-15T02:50:48.448Z,3.80
2023-05-15T02:53:16.111Z,4.10
2023-05-15T02:55:42.695Z,3.40
2023-05-15T02:58:09.668Z,3.40
2023-05-15T03:00:36.189Z,3.90
2023-05-15T03:03:02.771Z,3.90
2023-05-15T03:05:29.389Z,3.60
2023-05-15T03:07:57.352Z,3.60
2023-05-15T03:10:24.258Z,4.20
2023-05-15T03:12:50.792Z,3.90
2023-05-15T03:15:17.868Z,3.80
2023-05-15T03:17:44.788Z,4.20
2023-05-15T03:20:11.434Z,4.40
2023-05-15T03:22:38.046Z,3.40
2023-05-15T03:25:04.888Z,4.30
2023-05-15T03:27:31.465Z,3.50
2023-05-15T03:29:58.179Z,3.40
2023-05-15T03:32:24.842Z,3.70
2023-05-15T03:34:51.377Z,3.90
2023-05-15T03:37:17.997Z,3.70
2023-05-15T03:39:44.574Z,3.60
2023-05-15T03:42:11.388Z,4.30
2023-05-15T03:44:37.910Z,3.80
2023-05-15T03:47:04.715Z,3.40
2023-05-15T03:49:31.287Z,3.50
2023-05-15T03:51:57.896Z,3.40
2023-05-15T03:54:24.481Z,3.30
2023-05-15T03:56:52.905Z,3.40
2023-05-15T03:59:19.427Z,3.30
2023-05-15T04:02:02.954Z,3.00
2023-05-15T04:04:30.559Z,3.10
2023-05-15T04:06:57.236Z,3.30
2023-05-15T04:09:23.777Z,3.60
2023-05-15T04:11:50.298Z,2.90
2023-05-15T04:14:16.803Z,3.00
2023-05-15T04:16:43.475Z,2.90
2023-05-15T04:19:10.264Z,3.40
2023-05-15T04:21:36.807Z,3.20
2023-05-15T04:24:03.507Z,3.50
2023-05-15T04:26:31.625Z,3.40
2023-05-15T04:29:03.907Z,3.40
2023-05-15T04:31:31.847Z,2.80
2023-05-15T04:33:58.677Z,3.00
2023-05-15T04:36:25.418Z,3.50
2023-05-15T04:38:52.107Z,3.40
2023-05-15T04:41:18.649Z,3.20
2023-05-15T04:43:45.886Z,3.50
2023-05-15T04:46:12.754Z,3.10
2023-05-15T04:48:39.678Z,3.30
2023-05-15T04:51:07.477Z,2.90
2023-05-15T04:53:34.241Z,3.70
2023-05-15T04:56:04.078Z,3.40
2023-05-15T04:58:30.622Z,3.60
2023-05-15T05:00:57.170Z,3.00
2023-05-15T05:03:23.802Z,3.90
2023-05-15T05:05:50.326Z,3.00
2023-05-15T05:08:16.811Z,3.60
2023-05-15T05:10:43.349Z,3.50
2023-05-15T05:13:09.898Z,3.40
2023-05-15T05:15:37.135Z,3.30
2023-05-15T05:18:03.972Z,2.90
2023-05-15T05:20:30.645Z,3.60
2023-05-15T05:22:57.216Z,3.10
2023-05-15T05:25:24.056Z,2.80
2023-05-15T05:27:50.874Z,3.60
2023-05-15T05:30:17.564Z,3.30
2023-05-15T05:32:44.138Z,3.00
2023-05-15T05:35:10.843Z,3.60
2023-05-15T05:37:38.856Z,3.30
2023-05-15T05:40:08.804Z,3.50
2023-05-15T05:42:35.550Z,3.80
2023-05-15T05:45:02.123Z,3.40
2023-05-15T05:47:28.676Z,3.80
2023-05-15T05:49:55.369Z,3.30
2023-05-15T05:52:21.979Z,3.50
2023-05-15T05:54:48.696Z,3.40
2023-05-15T05:57:15.507Z,3.60
2023-05-15T05:59:42.169Z,2.90
2023-05-15T06:02:09.268Z,3.70
2023-05-15T06:04:36.045Z,3.60
2023-05-15T06:07:03.330Z,4.00
2023-05-15T06:09:29.941Z,3.20
2023-05-15T06:11:56.489Z,3.50
2023-05-15T06:14:23.309Z,3.70
2023-05-15T06:16:50.187Z,3.80
2023-05-15T06:19:16.948Z,3.20
2023-05-15T06:21:43.842Z,3.20
2023-05-15T06:24:10.522Z,3.30
2023-05-15T06:26:37.212Z,3.40
2023-05-15T06:29:03.719Z,3.90
2023-05-15T06:31:30.366Z,3.20
2023-05-15T06:33:56.889Z,3.50
2023-05-15T06:36:24.035Z,4.10
2023-05-15T06:38:50.583Z,4.20
2023-05-15T06:41:17.105Z,3.50
2023-05-15T06:43:43.660Z,3.60
2023-05-15T06:46:10.399Z,4.10
2023-05-15T06:48:37.278Z,3.70
2023-05-15T06:51:03.871Z,4.00
2023-05-15T06:53:30.704Z,3.90
2023-05-15T06:55:57.300Z,3.70
2023-05-15T06:58:24.297Z,4.10
2023-05-15T07:00:52.045Z,3.50
2023-05-15T07:03:19.517Z,4.10
2023-05-15T07:05:46.453Z,4.10
2023-05-15T07:08:12.983Z,3.80
2023-05-15T07:10:39.527Z,5.30
2023-05-15T07:13:06.063Z,4.50
2023-05-15T07:15:32.589Z,3.80
2023-05-15T07:17:59.243Z,4.10
2023-05-15T07:20:28.554Z,5.20
2023-05-15T07:22:57.142Z,4.00
2023-05-15T07:25:25.008Z,4.60
2023-05-15T07:27:52.078Z,4.50
2023-05-15T07:30:19.033Z,4.60
2023-05-15T07:32:48.745Z,4.80
2023-05-15T07:35:15.808Z,4.50
2023-05-15T07:37:42.559Z,4.60
2023-05-15T07:40:09.504Z,4.50
2023-05-15T07:42:36.159Z,5.00
2023-05-15T07:45:03.305Z,4.60
2023-05-15T07:47:30.058Z,4.80
2023-05-15T07:49:57.015Z,4.80
2023-05-15T07:52:23.709Z,4.90
2023-05-15T07:54:50.292Z,5.30
2023-05-15T07:57:16.995Z,4.60
2023-05-15T07:59:43.612Z,5.20
2023-05-15T08:02:10.391Z,4.30
2023-05-15T08:04:37.038Z,4.90
2023-05-15T08:07:03.809Z,5.20
2023-05-15T08:09:30.420Z,4.90
2023-05-15T08:11:57.528Z,5.00
2023-05-15T08:14:24.316Z,4.90
2023-05-15T08:16:51.727Z,4.90
2023-05-15T08:19:19.301Z,4.90
2023-05-15T08:21:46.393Z,5.20
2023-05-15T08:24:13.044Z,5.00
2023-05-15T08:26:39.809Z,5.10
2023-05-15T08:29:06.467Z,5.10
2023-05-15T08:31:33.250Z,5.30
2023-05-15T08:34:00.161Z,4.70
2023-05-15T08:36:26.996Z,4.60
2023-05-15T08:38:53.859Z,4.40
2023-05-15T08:41:39.984Z,4.90
2023-05-15T08:44:09.501Z,4.70
2023-05-15T08:46:36.632Z,5.70
2023-05-15T08:49:18.860Z,5.00
2023-05-15T08:51:45.833Z,5.40
2023-05-15T08:54:12.724Z,5.00
2023-05-15T08:56:39.585Z,5.00
2023-05-15T08:59:06.512Z,4.70
2023-05-15T09:01:33.963Z,5.20
2023-05-15T09:04:00.685Z,5.10
2023-05-15T09:06:28.309Z,5.50
2023-05-15T09:08:56.794Z,5.20
2023-05-15T09:11:26.405Z,5.40
2023-05-15T09:13:53.585Z,4.80
2023-05-15T09:16:21.600Z,5.40
2023-05-15T09:18:50.090Z,5.30
2023-05-15T09:21:22.823Z,5.10
2023-05-15T09:23:49.527Z,5.70
2023-05-15T09:26:16.696Z,5.00
2023-05-15T09:28:43.553Z,5.40
2023-05-15T09:31:11.203Z,4.90
2023-05-15T09:33:40.193Z,5.90
2023-05-15T09:36:07.951Z,6.10
2023-05-15T09:38:43.217Z,5.70
2023-05-15T09:41:09.884Z,5.80
2023-05-15T09:43:41.368Z,6.00
2023-05-15T09:46:08.716Z,5.60
2023-05-15T09:48:35.964Z,6.20
2023-05-15T09:51:02.998Z,6.40
2023-05-15T09:53:30.524Z,5.70
2023-05-15T09:55:57.181Z,5.90
2023-05-15T09:58:23.843Z,5.60
2023-05-15T10:00:50.472Z,5.50
2023-05-15T10:03:19.234Z,7.30
2023-05-15T10:05:46.066Z,6.20
2023-05-15T10:08:12.995Z,6.20
2023-05-15T10:10:39.800Z,5.30
2023-05-15T10:13:08.303Z,5.80
2023-05-15T10:15:35.377Z,5.90
2023-05-15T10:18:04.798Z,5.60
2023-05-15T10:20:35.378Z,5.90
2023-05-15T10:23:04.786Z,5.70
2023-05-15T10:25:55.852Z,5.80
2023-05-15T10:28:23.022Z,5.60
2023-05-15T10:30:49.746Z,5.70
2023-05-15T10:33:16.903Z,5.30
2023-05-15T10:35:44.402Z,5.60
2023-05-15T10:38:11.817Z,6.10
2023-05-15T10:40:41.046Z,5.50
2023-05-15T10:43:10.183Z,5.80
2023-05-15T10:45:37.083Z,6.50
2023-05-15T10:48:06.168Z,6.20
2023-05-15T10:50:33.252Z,5.30
2023-05-15T10:53:00.787Z,5.70
2023-05-15T10:55:27.414Z,5.70
2023-05-15T10:57:54.981Z,5.90
2023-05-15T11:00:26.937Z,5.40
2023-05-15T11:02:57.007Z,5.70
2023-05-15T11:08:15.992Z,6.20
2023-05-15T11:10:42.744Z,6.30
2023-05-15T11:13:09.451Z,6.00
2023-05-15T11:15:43.300Z,7.40
2023-05-15T11:18:10.048Z,6.90
2023-05-15T11:20:41.734Z,7.00
2023-05-15T11:23:08.904Z,6.80
2023-05-15T11:25:36.769Z,6.70
2023-05-15T11:28:04.816Z,7.10
2023-05-15T11:30:39.672Z,7.40
2023-05-15T11:33:13.378Z,6.90
2023-05-15T11:35:49.453Z,6.90
2023-05-15T11:38:18.098Z,7.80
2023-05-15T11:40:47.630Z,7.80
2023-05-15T11:43:30.972Z,8.40
2023-05-15T11:46:04.358Z,8.10
2023-05-15T11:48:36.107Z,7.20
2023-05-15T11:51:03.139Z,8.40
2023-05-15T11:53:31.212Z,8.80
2023-05-15T11:55:59.723Z,8.30
2023-05-15T11:58:26.943Z,7.90
2023-05-15T12:00:54.243Z,8.60
2023-05-15T12:03:26.550Z,8.30
2023-05-15T12:05:59.524Z,9.00
2023-05-15T12:08:32.468Z,7.60
2023-05-15T12:11:00.713Z,8.10
2023-05-15T12:13:27.457Z,7.80
2023-05-15T12:15:56.214Z,7.00
2023-05-15T12:18:23.216Z,7.50
2023-05-15T12:20:53.036Z,7.20
2023-05-15T12:23:21.870Z,7.70
2023-05-15T12:25:50.286Z,7.50
2023-05-15T12:28:17.321Z,7.00
2023-05-15T12:30:44.420Z,7.80
2023-05-15T12:33:11.358Z,7.10
2023-05-15T12:35:43.740Z,7.90
2023-05-15T12:38:15.829Z,7.40
2023-05-15T12:40:44.094Z,7.90
2023-05-15T12:43:11.272Z,8.60
2023-05-15T12:45:38.856Z,7.70
2023-05-15T12:48:05.981Z,6.30
2023-05-15T12:50:34.249Z,6.60
2023-05-15T12:53:02.583Z,6.50
2023-05-15T12:55:34.004Z,6.60
2023-05-15T12:58:04.455Z,6.00
2023-05-15T13:00:34.454Z,6.40
2023-05-15T13:05:32.146Z,7.10
2023-05-15T13:08:07.551Z,7.80
2023-05-15T13:10:37.176Z,6.30
2023-05-15T13:13:04.091Z,6.10
2023-05-15T13:15:39.707Z,6.20
2023-05-15T13:18:07.406Z,6.00
2023-05-15T13:20:35.506Z,5.50
2023-05-15T13:23:02.465Z,6.10
2023-05-15T13:25:32.007Z,7.30
2023-05-15T13:28:00.624Z,6.30
2023-05-15T13:30:28.532Z,5.90
2023-05-15T13:32:55.988Z,5.90
2023-05-15T13:35:23.586Z,5.60
2023-05-15T13:37:50.451Z,6.30
2023-05-15T13:40:17.150Z,5.90
2023-05-15T13:42:44.622Z,6.70
2023-05-15T13:45:15.930Z,6.60
2023-05-15T13:47:43.832Z,6.50
2023-05-15T13:50:12.761Z,6.80
2023-05-15T13:52:41.066Z,6.60
2023-05-15T13:55:09.807Z,6.90
2023-05-15T13:57:37.893Z,7.50
2023-05-15T14:00:13.331Z,6.40
2023-05-15T14:02:41.877Z,7.00
2023-05-15T14:05:13.738Z,6.60
2023-05-15T14:07:41.404Z,6.30
2023-05-15T14:10:08.647Z,6.40
2023-05-15T14:12:38.127Z,8.50
2023-05-15T14:15:05.217Z,7.90
2023-05-15T14:17:31.926Z,7.60
2023-05-15T14:19:58.681Z,7.40
2023-05-15T14:22:25.537Z,9.00
2023-05-15T14:24:53.222Z,7.80
2023-05-15T14:27:20.327Z,7.70
2023-05-15T14:29:48.878Z,8.50
2023-05-15T14:32:16.385Z,7.80
2023-05-15T14:34:43.304Z,7.20
2023-05-15T14:37:10.348Z,7.90
2023-05-15T14:39:37.242Z,8.90
2023-05-15T14:42:04.440Z,8.10
2023-05-15T14:44:31.158Z,8.60
2023-05-15T14:47:11.073Z,8.50
2023-05-15T14:49:38.047Z,8.70
2023-05-15T14:52:09.047Z,8.20
2023-05-15T14:54:36.435Z,9.20
2023-05-15T14:57:04.076Z,9.60
2023-05-15T14:59:31.034Z,8.10
2023-05-15T15:01:58.157Z,10.80
2023-05-15T15:04:26.619Z,11.50
2023-05-15T15:06:56.762Z,11.80
2023-05-15T15:09:24.041Z,9.20
2023-05-15T15:11:51.279Z,10.60
2023-05-15T15:14:17.960Z,8.40
2023-05-15T15:16:46.129Z,9.00
2023-05-15T15:19:13.964Z,8.80
2023-05-15T15:21:40.895Z,9.90
2023-05-15T15:24:07.668Z,8.30
2023-05-15T15:26:34.354Z,9.20
2023-05-15T15:29:01.203Z,9.30
2023-05-15T15:31:29.770Z,8.60
2023-05-15T15:33:57.697Z,8.70
2023-05-15T15:36:25.501Z,8.30
2023-05-15T15:38:52.366Z,9.20
2023-05-15T15:41:21.100Z,9.10
2023-05-15T15:43:47.974Z,8.70
2023-05-15T15:46:14.673Z,9.50
2023-05-15T15:48:41.475Z,8.90
2023-05-15T15:51:08.465Z,10.00
2023-05-15T15:53:35.304Z,8.70
2023-05-15T15:56:01.997Z,9.30
2023-05-15T15:58:29.901Z,8.30
2023-05-15T16:00:57.728Z,8.40
2023-05-15T16:03:24.890Z,8.70
2023-05-15T16:05:51.916Z,9.10
2023-05-15T16:08:18.764Z,9.20
2023-05-15T16:10:45.530Z,8.70
2023-05-15T16:13:12.330Z,9.50
2023-05-15T16:15:38.880Z,10.50
2023-05-15T16:18:05.644Z,10.50
2023-05-15T16:20:33.589Z,9.20
2023-05-15T16:23:01.756Z,9.50
2023-05-15T16:25:28.364Z,8.90
2023-05-15T16:27:55.009Z,8.80
2023-05-15T16:30:21.807Z,8.90
2023-05-15T16:32:49.054Z,9.40
2023-05-15T16:35:15.855Z,8.70
2023-05-15T16:37:42.477Z,9.90
2023-05-15T16:40:09.853Z,9.30
2023-05-15T16:42:38.033Z,9.80
2023-05-15T16:45:05.706Z,9.00
2023-05-15T16:47:32.532Z,10.20
2023-05-15T16:49:59.292Z,10.50
2023-05-15T16:52:25.955Z,9.10
2023-05-15T16:54:52.519Z,9.80
2023-05-15T16:57:19.124Z,10.00
2023-05-15T16:59:46.044Z,11.70
2023-05-15T17:02:12.672Z,11.40
2023-05-15T17:04:39.290Z,12.90
2023-05-15T17:07:06.039Z,11.10
2023-05-15T17:09:32.857Z,12.00
2023-05-15T17:12:00.706Z,10.10
2023-05-15T17:14:27.526Z,10.80
2023-05-15T17:16:56.587Z,10.40
2023-05-15T17:19:23.268Z,9.90
2023-05-15T17:21:49.917Z,9.60
2023-05-15T17:24:16.648Z,10.00
2023-05-15T17:26:43.279Z,10.00
2023-05-15T17:29:10.929Z,9.10
2023-05-15T17:31:38.670Z,8.90
2023-05-15T17:34:05.490Z,8.50
2023-05-15T17:36:33.716Z,8.80
2023-05-15T17:39:00.594Z,7.90
2023-05-15T17:41:27.198Z,7.90
2023-05-15T17:43:53.791Z,7.90
2023-05-15T17:46:20.659Z,9.50
2023-05-15T17:48:47.362Z,8.80
2023-05-15T17:51:13.991Z,7.40
2023-05-15T17:53:40.826Z,8.70
2023-05-15T17:56:08.128Z,7.50
2023-05-15T17:58:34.727Z,8.70
2023-05-15T18:01:01.530Z,8.50
2023-05-15T18:03:28.892Z,8.40
2023-05-15T18:05:58.015Z,8.80
2023-05-15T18:08:24.708Z,8.70
2023-05-15T18:10:51.783Z,8.40
2023-05-15T18:13:18.866Z,8.00
2023-05-15T18:15:45.822Z,8.50
2023-05-15T18:18:12.595Z,9.30
2023-05-15T18:20:39.409Z,9.60
2023-05-15T18:23:06.153Z,9.10
2023-05-15T18:25:36.785Z,9.40
2023-05-15T18:28:04.405Z,8.70
2023-05-15T18:30:31.248Z,8.60
2023-05-15T18:33:00.239Z,8.40
2023-05-15T18:35:27.170Z,8.30
2023-05-15T18:37:54.225Z,8.00
2023-05-15T18:40:21.511Z,8.20
2023-05-15T18:42:48.024Z,8.00
2023-05-15T18:45:16.154Z,8.10
2023-05-15T18:47:42.713Z,8.50
2023-05-15T18:50:09.672Z,8.40
2023-05-15T18:52:36.294Z,8.40
2023-05-15T18:55:03.234Z,8.20
2023-05-15T18:57:30.139Z,9.00
2023-05-15T18:59:56.797Z,8.30
2023-05-15T19:02:25.859Z,8.00
2023-05-15T19:04:52.896Z,8.30
2023-05-15T19:07:19.430Z,8.50
2023-05-15T19:09:45.968Z,8.10
2023-05-15T19:12:12.497Z,7.60
2023-05-15T19:14:39.096Z,7.70
2023-05-15T19:17:06.021Z,7.90
2023-05-15T19:19:33.677Z,10.00
2023-05-15T19:22:00.270Z,9.30
2023-05-15T19:24:27.198Z,8.90
2023-05-15T19:26:53.866Z,8.90
2023-05-15T19:29:20.567Z,8.50
2023-05-15T19:31:47.151Z,8.10
2023-05-15T19:34:14.111Z,8.10
2023-05-15T19:36:40.868Z,8.10
2023-05-15T19:39:07.506Z,7.90
2023-05-15T19:41:34.115Z,8.20
2023-05-15T19:44:00.980Z,7.90
2023-05-15T19:46:27.730Z,7.90
2023-05-15T19:48:54.424Z,7.60
2023-05-15T19:51:21.060Z,8.50
2023-05-15T19:53:47.607Z,8.60
2023-05-15T19:56:14.298Z,7.90
2023-05-15T19:58:41.112Z,8.10
2023-05-15T20:01:07.844Z,8.60
2023-05-15T20:03:34.722Z,9.10
2023-05-15T20:06:02.472Z,9.90
2023-05-15T20:08:29.828Z,10.90
2023-05-15T20:10:57.214Z,10.60
2023-05-15T20:13:24.334Z,9.90
2023-05-15T20:15:58.104Z,8.80
2023-05-15T20:18:28.695Z,9.50
2023-05-15T20:20:55.945Z,10.00
2023-05-15T20:23:22.605Z,9.90
2023-05-15T20:25:50.487Z,10.30
2023-05-15T20:28:17.853Z,10.60
2023-05-15T20:30:47.392Z,13.60
2023-05-15T20:33:14.290Z,14.90
2023-05-15T20:35:42.607Z,11.80
2023-05-15T20:38:10.535Z,10.50
2023-05-15T20:40:37.808Z,9.50
2023-05-15T20:43:04.761Z,9.40
2023-05-15T20:45:34.103Z,10.60
2023-05-15T20:48:01.211Z,10.50
2023-05-15T20:50:28.360Z,9.60
2023-05-15T20:52:55.730Z,9.90
2023-05-15T20:55:22.795Z,9.50
2023-05-15T20:57:50.338Z,8.10
2023-05-15T21:00:18.130Z,8.40
2023-05-15T21:02:46.578Z,9.70
2023-05-15T21:05:14.079Z,8.90
2023-05-15T21:07:41.155Z,9.10
2023-05-15T21:10:08.855Z,9.30
2023-05-15T21:12:35.632Z,8.80
2023-05-15T21:15:02.952Z,8.80
2023-05-15T21:17:30.155Z,8.50
2023-05-15T21:19:58.556Z,8.40
2023-05-15T21:22:25.315Z,8.20
2023-05-15T21:24:52.145Z,7.90
2023-05-15T21:27:19.240Z,7.50
2023-05-15T21:29:46.527Z,8.00
2023-05-15T21:32:13.190Z,7.30
2023-05-15T21:34:40.019Z,7.90
2023-05-15T21:37:06.933Z,8.70
2023-05-15T21:39:33.691Z,7.30
2023-05-15T21:42:00.260Z,7.40
2023-05-15T21:44:27.059Z,7.10
2023-05-15T21:46:53.804Z,6.60
2023-05-15T21:49:20.861Z,7.50
2023-05-15T21:51:47.547Z,7.00
2023-05-15T21:54:14.349Z,6.70
2023-05-15T21:56:41.231Z,7.10
2023-05-15T21:59:08.138Z,6.70
2023-05-15T22:01:36.185Z,7.20
2023-05-15T22:04:03.067Z,6.90
2023-05-15T22:06:29.765Z,6.80
2023-05-15T22:08:56.484Z,6.70
2023-05-15T22:11:23.514Z,6.30
2023-05-15T22:13:50.055Z,5.90
2023-05-15T22:16:17.045Z,6.60
2023-05-15T22:18:45.279Z,6.80
2023-05-15T22:21:11.960Z,6.30
2023-05-15T22:23:38.485Z,5.80
2023-05-15T22:26:05.012Z,5.50
2023-05-15T22:28:31.524Z,4.60
2023-05-15T22:30:58.047Z,4.60
2023-05-15T22:33:24.967Z,4.80
2023-05-15T22:35:52.737Z,4.50
2023-05-15T22:38:20.026Z,4.40
2023-05-15T22:40:52.839Z,4.90
2023-05-15T22:43:20.274Z,4.50
2023-05-15T22:45:46.865Z,4.10
2023-05-15T22:48:15.212Z,4.20
2023-05-15T22:50:41.813Z,4.30
2023-05-15T22:53:08.288Z,4.40
2023-05-15T22:55:35.107Z,4.50
2023-05-15T22:58:01.608Z,4.50
2023-05-15T23:00:28.334Z,4.70
2023-05-15T23:02:55.975Z,4.30
2023-05-15T23:05:23.517Z,4.70
2023-05-15T23:07:50.518Z,4.00
2023-05-15T23:10:17.093Z,4.70
2023-05-15T23:12:43.654Z,4.40
2023-05-15T23:15:10.654Z,4.50
2023-05-15T23:17:37.342Z,5.00
2023-05-15T23:20:06.754Z,4.60
2023-05-15T23:22:33.354Z,4.90
2023-05-15T23:24:59.890Z,5.10
2023-05-15T23:27:26.436Z,5.50
2023-05-15T23:29:53.528Z,5.40
2023-05-15T23:32:20.029Z,5.50
2023-05-15T23:34:46.722Z,5.70
2023-05-15T23:37:13.468Z,5.90
2023-05-15T23:39:40.047Z,6.40
2023-05-15T23:42:06.700Z,6.20
2023-05-15T23:44:33.231Z,6.40
2023-05-15T23:46:59.897Z,6.90
2023-05-15T23:49:26.497Z,6.80
2023-05-15T23:51:52.995Z,6.50
2023-05-15T23:54:19.510Z,6.30
2023-05-15T23:56:46.444Z,6.20
2023-05-15T23:59:13.744Z,6.60
